sensor_id;sensor_type;location;lat;lon;timestamp;P1;durP1;ratioP1;P2;durP2;ratioP2
60432;SDS011;46286;48.098;11.590;2023-03-14T00:02:19;3.58;;;1.08;;
60432;SDS011;46286;48.098;11.590;2023-03-14T00:04:44;2.30;;;1.30;;
60432;SDS011;46286;48.098;11.590;2023-03-14T00:07:11;1.77;;;1.20;;
60432;SDS011;46286;48.098;11.590;2023-03-14T00:09:37;2.25;;;1.20;;
60432;SDS011;46286;48.098;11.590;2023-03-14T00:12:03;2.25;;;1.40;;
60432;SDS011;46286;48.098;11.590;2023-03-14T00:14:29;2.00;;;1.10;;
60432;SDS011;46286;48.098;11.590;2023-03-14T00:16:56;1.80;;;1.10;;
60432;SDS011;46286;48.098;11.590;2023-03-14T00:19:22;3.45;;;1.30;;
60432;SDS011;46286;48.098;11.590;2023-03-14T00:21:48;1.25;;;1.00;;
60432;SDS011;46286;48.098;11.590;2023-03-14T00:24:13;1.27;;;1.00;;
60432;SDS011;46286;48.098;11.590;2023-03-14T00:26:39;1.48;;;1.05;;
60432;SDS011;46286;48.098;11.590;2023-03-14T00:29:04;2.70;;;1.35;;
60432;SDS011;46286;48.098;11.590;2023-03-14T00:31:30;1.48;;;1.15;;
60432;SDS011;46286;48.098;11.590;2023-03-14T00:33:55;1.80;;;1.35;;
60432;SDS011;46286;48.098;11.590;2023-03-14T00:36:21;3.40;;;1.10;;
60432;SDS011;46286;48.098;11.590;2023-03-14T00:38:48;2.75;;;1.15;;
60432;SDS011;46286;48.098;11.590;2023-03-14T00:41:17;1.40;;;0.98;;
60432;SDS011;46286;48.098;11.590;2023-03-14T00:43:44;3.72;;;1.30;;
60432;SDS011;46286;48.098;11.590;2023-03-14T00:46:10;2.22;;;1.02;;
60432;SDS011;46286;48.098;11.590;2023-03-14T00:48:37;1.23;;;0.95;;
60432;SDS011;46286;48.098;11.590;2023-03-14T00:51:04;1.65;;;0.90;;
60432;SDS011;46286;48.098;11.590;2023-03-14T00:53:31;1.25;;;1.02;;
60432;SDS011;46286;48.098;11.590;2023-03-14T00:55:56;1.80;;;1.05;;
60432;SDS011;46286;48.098;11.590;2023-03-14T00:58:22;2.38;;;1.30;;
60432;SDS011;46286;48.098;11.590;2023-03-14T01:00:47;1.83;;;1.08;;
60432;SDS011;46286;48.098;11.590;2023-03-14T01:03:13;4.32;;;1.00;;
60432;SDS011;46286;48.098;11.590;2023-03-14T01:05:40;1.88;;;0.75;;
60432;SDS011;46286;48.098;11.590;2023-03-14T01:08:06;1.92;;;0.73;;
60432;SDS011;46286;48.098;11.590;2023-03-14T01:10:40;2.60;;;0.75;;
60432;SDS011;46286;48.098;11.590;2023-03-14T01:13:06;1.92;;;0.80;;
60432;SDS011;46286;48.098;11.590;2023-03-14T01:15:33;1.70;;;0.70;;
60432;SDS011;46286;48.098;11.590;2023-03-14T01:17:59;1.58;;;0.82;;
60432;SDS011;46286;48.098;11.590;2023-03-14T01:20:24;2.90;;;1.00;;
60432;SDS011;46286;48.098;11.590;2023-03-14T01:22:50;3.63;;;1.20;;
60432;SDS011;46286;48.098;11.590;2023-03-14T01:25:16;0.85;;;0.70;;
60432;SDS011;46286;48.098;11.590;2023-03-14T01:27:43;0.98;;;0.73;;
60432;SDS011;46286;48.098;11.590;2023-03-14T01:30:09;3.80;;;1.00;;
60432;SDS011;46286;48.098;11.590;2023-03-14T01:32:36;1.52;;;0.93;;
60432;SDS011;46286;48.098;11.590;2023-03-14T01:35:02;2.33;;;0.90;;
60432;SDS011;46286;48.098;11.590;2023-03-14T01:37:28;3.60;;;1.27;;
60432;SDS011;46286;48.098;11.590;2023-03-14T01:39:54;3.97;;;1.10;;
60432;SDS011;46286;48.098;11.590;2023-03-14T01:42:19;2.08;;;0.77;;
60432;SDS011;46286;48.098;11.590;2023-03-14T01:44:48;2.08;;;1.20;;
60432;SDS011;46286;48.098;11.590;2023-03-14T01:47:19;5.00;;;1.27;;
60432;SDS011;46286;48.098;11.590;2023-03-14T01:49:45;2.78;;;0.80;;
60432;SDS011;46286;48.098;11.590;2023-03-14T01:52:25;2.58;;;1.08;;
60432;SDS011;46286;48.098;11.590;2023-03-14T01:55:07;5.45;;;1.35;;
60432;SDS011;46286;48.098;11.590;2023-03-14T01:57:38;4.20;;;1.10;;
60432;SDS011;46286;48.098;11.590;2023-03-14T02:00:07;5.25;;;1.30;;
60432;SDS011;46286;48.098;11.590;2023-03-14T02:03:01;5.07;;;1.48;;
60432;SDS011;46286;48.098;11.590;2023-03-14T02:05:32;5.47;;;1.83;;
60432;SDS011;46286;48.098;11.590;2023-03-14T02:08:00;6.72;;;1.83;;
60432;SDS011;46286;48.098;11.590;2023-03-14T02:10:29;11.45;;;1.80;;
60432;SDS011;46286;48.098;11.590;2023-03-14T02:12:56;4.15;;;1.70;;
60432;SDS011;46286;48.098;11.590;2023-03-14T02:15:26;7.97;;;1.75;;
60432;SDS011;46286;48.098;11.590;2023-03-14T02:17:52;4.50;;;1.50;;
60432;SDS011;46286;48.098;11.590;2023-03-14T02:22:50;14.00;;;1.73;;
60432;SDS011;46286;48.098;11.590;2023-03-14T02:25:38;4.75;;;1.17;;
60432;SDS011;46286;48.098;11.590;2023-03-14T02:28:05;6.30;;;1.38;;
60432;SDS011;46286;48.098;11.590;2023-03-14T02:30:31;2.03;;;0.90;;
60432;SDS011;46286;48.098;11.590;2023-03-14T02:33:03;2.60;;;0.88;;
60432;SDS011;46286;48.098;11.590;2023-03-14T02:36:05;1.40;;;0.80;;
60432;SDS011;46286;48.098;11.590;2023-03-14T02:40:56;2.50;;;0.90;;
60432;SDS011;46286;48.098;11.590;2023-03-14T02:43:22;2.15;;;1.00;;
60432;SDS011;46286;48.098;11.590;2023-03-14T02:45:49;2.20;;;0.70;;
60432;SDS011;46286;48.098;11.590;2023-03-14T02:48:20;3.60;;;0.80;;
60432;SDS011;46286;48.098;11.590;2023-03-14T02:50:50;0.73;;;0.57;;
60432;SDS011;46286;48.098;11.590;2023-03-14T02:53:21;2.58;;;1.00;;
60432;SDS011;46286;48.098;11.590;2023-03-14T02:55:50;2.30;;;0.82;;
60432;SDS011;46286;48.098;11.590;2023-03-14T02:58:16;0.98;;;0.73;;
60432;SDS011;46286;48.098;11.590;2023-03-14T03:00:43;1.48;;;0.85;;
60432;SDS011;46286;48.098;11.590;2023-03-14T03:03:08;2.55;;;0.85;;
60432;SDS011;46286;48.098;11.590;2023-03-14T03:05:34;0.93;;;0.63;;
60432;SDS011;46286;48.098;11.590;2023-03-14T03:08:00;1.75;;;0.80;;
60432;SDS011;46286;48.098;11.590;2023-03-14T03:10:26;0.60;;;0.60;;
60432;SDS011;46286;48.098;11.590;2023-03-14T03:12:53;0.55;;;0.55;;
60432;SDS011;46286;48.098;11.590;2023-03-14T03:15:18;1.02;;;0.70;;
60432;SDS011;46286;48.098;11.590;2023-03-14T03:17:44;1.52;;;0.80;;
60432;SDS011;46286;48.098;11.590;2023-03-14T03:20:10;1.58;;;0.57;;
60432;SDS011;46286;48.098;11.590;2023-03-14T03:22:37;0.60;;;0.50;;
60432;SDS011;46286;48.098;11.590;2023-03-14T03:25:04;0.50;;;0.40;;
60432;SDS011;46286;48.098;11.590;2023-03-14T03:27:31;0.13;;;0.13;;
60432;SDS011;46286;48.098;11.590;2023-03-14T03:29:57;1.45;;;0.55;;
60432;SDS011;46286;48.098;11.590;2023-03-14T03:32:23;0.40;;;0.30;;
60432;SDS011;46286;48.098;11.590;2023-03-14T03:34:49;0.63;;;0.63;;
60432;SDS011;46286;48.098;11.590;2023-03-14T03:37:15;0.30;;;0.30;;
60432;SDS011;46286;48.098;11.590;2023-03-14T03:39:40;0.93;;;0.20;;
60432;SDS011;46286;48.098;11.590;2023-03-14T03:42:06;0.20;;;0.20;;
60432;SDS011;46286;48.098;11.590;2023-03-14T03:44:31;0.10;;;0.10;;
60432;SDS011;46286;48.098;11.590;2023-03-14T03:46:57;0.10;;;0.10;;
60432;SDS011;46286;48.098;11.590;2023-03-14T03:49:24;0.17;;;0.17;;
60432;SDS011;46286;48.098;11.590;2023-03-14T03:51:53;0.70;;;0.40;;
60432;SDS011;46286;48.098;11.590;2023-03-14T03:54:19;0.80;;;0.30;;
60432;SDS011;46286;48.098;11.590;2023-03-14T03:56:44;0.15;;;0.13;;
60432;SDS011;46286;48.098;11.590;2023-03-14T03:59:10;0.52;;;0.47;;
60432;SDS011;46286;48.098;11.590;2023-03-14T04:01:35;0.43;;;0.30;;
60432;SDS011;46286;48.098;11.590;2023-03-14T04:04:01;0.30;;;0.30;;
60432;SDS011;46286;48.098;11.590;2023-03-14T04:06:26;1.00;;;0.20;;
60432;SDS011;46286;48.098;11.590;2023-03-14T04:08:53;0.20;;;0.20;;
60432;SDS011;46286;48.098;11.590;2023-03-14T04:11:19;0.00;;;0.00;;
60432;SDS011;46286;48.098;11.590;2023-03-14T04:13:45;0.17;;;0.15;;
60432;SDS011;46286;48.098;11.590;2023-03-14T04:16:18;0.28;;;0.20;;
60432;SDS011;46286;48.098;11.590;2023-03-14T04:18:46;0.13;;;0.13;;
60432;SDS011;46286;48.098;11.590;2023-03-14T04:21:11;1.75;;;0.40;;
60432;SDS011;46286;48.098;11.590;2023-03-14T04:23:37;0.47;;;0.32;;
60432;SDS011;46286;48.098;11.590;2023-03-14T04:26:02;0.20;;;0.20;;
60432;SDS011;46286;48.098;11.590;2023-03-14T04:28:28;0.47;;;0.40;;
60432;SDS011;46286;48.098;11.590;2023-03-14T04:30:54;0.20;;;0.20;;
60432;SDS011;46286;48.098;11.590;2023-03-14T04:33:20;0.55;;;0.35;;
60432;SDS011;46286;48.098;11.590;2023-03-14T04:35:45;0.10;;;0.10;;
60432;SDS011;46286;48.098;11.590;2023-03-14T04:38:12;0.10;;;0.00;;
60432;SDS011;46286;48.098;11.590;2023-03-14T04:40:38;0.52;;;0.38;;
60432;SDS011;46286;48.098;11.590;2023-03-14T04:43:04;1.27;;;0.30;;
60432;SDS011;46286;48.098;11.590;2023-03-14T04:45:30;0.85;;;0.55;;
60432;SDS011;46286;48.098;11.590;2023-03-14T04:47:56;0.20;;;0.20;;
60432;SDS011;46286;48.098;11.590;2023-03-14T04:50:21;0.30;;;0.30;;
60432;SDS011;46286;48.098;11.590;2023-03-14T04:52:47;0.43;;;0.43;;
60432;SDS011;46286;48.098;11.590;2023-03-14T04:55:13;6.22;;;0.70;;
60432;SDS011;46286;48.098;11.590;2023-03-14T04:57:39;0.50;;;0.20;;
60432;SDS011;46286;48.098;11.590;2023-03-14T05:00:05;0.50;;;0.20;;
60432;SDS011;46286;48.098;11.590;2023-03-14T05:02:31;1.35;;;0.30;;
60432;SDS011;46286;48.098;11.590;2023-03-14T05:04:57;0.20;;;0.20;;
60432;SDS011;46286;48.098;11.590;2023-03-14T05:07:23;0.93;;;0.30;;
60432;SDS011;46286;48.098;11.590;2023-03-14T05:09:48;0.75;;;0.28;;
60432;SDS011;46286;48.098;11.590;2023-03-14T05:12:14;0.30;;;0.15;;
60432;SDS011;46286;48.098;11.590;2023-03-14T05:14:40;1.70;;;0.30;;
60432;SDS011;46286;48.098;11.590;2023-03-14T05:17:05;1.55;;;0.40;;
60432;SDS011;46286;48.098;11.590;2023-03-14T05:19:31;0.32;;;0.32;;
60432;SDS011;46286;48.098;11.590;2023-03-14T05:21:57;0.35;;;0.22;;
60432;SDS011;46286;48.098;11.590;2023-03-14T05:24:22;0.20;;;0.13;;
60432;SDS011;46286;48.098;11.590;2023-03-14T05:26:48;1.85;;;0.10;;
60432;SDS011;46286;48.098;11.590;2023-03-14T05:29:13;0.95;;;0.40;;
60432;SDS011;46286;48.098;11.590;2023-03-14T05:31:39;0.30;;;0.20;;
60432;SDS011;46286;48.098;11.590;2023-03-14T05:34:05;0.57;;;0.20;;
60432;SDS011;46286;48.098;11.590;2023-03-14T05:36:30;0.98;;;0.50;;
60432;SDS011;46286;48.098;11.590;2023-03-14T05:38:56;0.28;;;0.20;;
60432;SDS011;46286;48.098;11.590;2023-03-14T05:41:22;0.22;;;0.22;;
60432;SDS011;46286;48.098;11.590;2023-03-14T05:43:47;0.15;;;0.15;;
60432;SDS011;46286;48.098;11.590;2023-03-14T05:46:13;0.52;;;0.35;;
60432;SDS011;46286;48.098;11.590;2023-03-14T05:48:39;0.45;;;0.40;;
60432;SDS011;46286;48.098;11.590;2023-03-14T05:51:05;0.47;;;0.22;;
60432;SDS011;46286;48.098;11.590;2023-03-14T05:53:30;0.40;;;0.40;;
60432;SDS011;46286;48.098;11.590;2023-03-14T05:55:56;0.20;;;0.20;;
60432;SDS011;46286;48.098;11.590;2023-03-14T05:58:22;0.82;;;0.40;;
60432;SDS011;46286;48.098;11.590;2023-03-14T06:00:48;0.50;;;0.50;;
60432;SDS011;46286;48.098;11.590;2023-03-14T06:03:14;0.25;;;0.25;;
60432;SDS011;46286;48.098;11.590;2023-03-14T06:05:40;0.70;;;0.45;;
60432;SDS011;46286;48.098;11.590;2023-03-14T06:08:05;1.65;;;0.30;;
60432;SDS011;46286;48.098;11.590;2023-03-14T06:10:31;0.32;;;0.22;;
60432;SDS011;46286;48.098;11.590;2023-03-14T06:12:56;0.20;;;0.20;;
60432;SDS011;46286;48.098;11.590;2023-03-14T06:15:22;0.32;;;0.30;;
60432;SDS011;46286;48.098;11.590;2023-03-14T06:17:47;0.63;;;0.40;;
60432;SDS011;46286;48.098;11.590;2023-03-14T06:20:13;0.98;;;0.63;;
60432;SDS011;46286;48.098;11.590;2023-03-14T06:22:39;2.08;;;0.60;;
60432;SDS011;46286;48.098;11.590;2023-03-14T06:25:06;0.82;;;0.50;;
60432;SDS011;46286;48.098;11.590;2023-03-14T06:27:31;0.22;;;0.22;;
60432;SDS011;46286;48.098;11.590;2023-03-14T06:29:58;0.30;;;0.30;;
60432;SDS011;46286;48.098;11.590;2023-03-14T06:32:23;0.70;;;0.43;;
60432;SDS011;46286;48.098;11.590;2023-03-14T06:34:49;0.50;;;0.50;;
60432;SDS011;46286;48.098;11.590;2023-03-14T06:37:15;0.43;;;0.40;;
60432;SDS011;46286;48.098;11.590;2023-03-14T06:39:41;0.30;;;0.30;;
60432;SDS011;46286;48.098;11.590;2023-03-14T06:42:08;0.50;;;0.50;;
60432;SDS011;46286;48.098;11.590;2023-03-14T06:44:35;1.85;;;0.88;;
60432;SDS011;46286;48.098;11.590;2023-03-14T06:47:00;1.00;;;0.82;;
60432;SDS011;46286;48.098;11.590;2023-03-14T06:49:26;2.28;;;1.23;;
60432;SDS011;46286;48.098;11.590;2023-03-14T06:51:52;2.50;;;1.08;;
60432;SDS011;46286;48.098;11.590;2023-03-14T06:54:17;3.08;;;1.25;;
60432;SDS011;46286;48.098;11.590;2023-03-14T06:56:43;2.05;;;0.95;;
60432;SDS011;46286;48.098;11.590;2023-03-14T06:59:09;1.23;;;0.57;;
60432;SDS011;46286;48.098;11.590;2023-03-14T07:01:34;0.73;;;0.50;;
60432;SDS011;46286;48.098;11.590;2023-03-14T07:04:03;1.00;;;0.63;;
60432;SDS011;46286;48.098;11.590;2023-03-14T07:06:28;0.95;;;0.60;;
60432;SDS011;46286;48.098;11.590;2023-03-14T07:08:57;0.93;;;0.70;;
60432;SDS011;46286;48.098;11.590;2023-03-14T07:11:22;0.80;;;0.65;;
60432;SDS011;46286;48.098;11.590;2023-03-14T07:13:48;0.30;;;0.30;;
60432;SDS011;46286;48.098;11.590;2023-03-14T07:16:14;1.00;;;0.80;;
60432;SDS011;46286;48.098;11.590;2023-03-14T07:18:39;0.40;;;0.40;;
60432;SDS011;46286;48.098;11.590;2023-03-14T07:21:05;1.33;;;0.50;;
60432;SDS011;46286;48.098;11.590;2023-03-14T07:23:34;1.65;;;0.40;;
60432;SDS011;46286;48.098;11.590;2023-03-14T07:26:00;2.45;;;0.63;;
60432;SDS011;46286;48.098;11.590;2023-03-14T07:28:26;1.50;;;0.43;;
60432;SDS011;46286;48.098;11.590;2023-03-14T07:30:52;0.95;;;0.73;;
60432;SDS011;46286;48.098;11.590;2023-03-14T07:33:18;0.50;;;0.50;;
60432;SDS011;46286;48.098;11.590;2023-03-14T07:35:46;0.52;;;0.50;;
60432;SDS011;46286;48.098;11.590;2023-03-14T07:38:12;0.70;;;0.55;;
60432;SDS011;46286;48.098;11.590;2023-03-14T07:40:37;3.20;;;0.77;;
60432;SDS011;46286;48.098;11.590;2023-03-14T07:43:03;0.52;;;0.50;;
60432;SDS011;46286;48.098;11.590;2023-03-14T07:45:29;0.90;;;0.70;;
60432;SDS011;46286;48.098;11.590;2023-03-14T07:47:54;1.92;;;0.65;;
60432;SDS011;46286;48.098;11.590;2023-03-14T07:50:23;0.32;;;0.32;;
60432;SDS011;46286;48.098;11.590;2023-03-14T07:52:52;0.75;;;0.60;;
60432;SDS011;46286;48.098;11.590;2023-03-14T07:55:17;1.02;;;0.68;;
60432;SDS011;46286;48.098;11.590;2023-03-14T07:57:43;1.02;;;0.75;;
60432;SDS011;46286;48.098;11.590;2023-03-14T08:00:09;0.70;;;0.70;;
60432;SDS011;46286;48.098;11.590;2023-03-14T08:02:36;3.05;;;0.95;;
60432;SDS011;46286;48.098;11.590;2023-03-14T08:05:02;1.92;;;0.80;;
60432;SDS011;46286;48.098;11.590;2023-03-14T08:07:29;3.67;;;1.05;;
60432;SDS011;46286;48.098;11.590;2023-03-14T08:09:54;1.52;;;1.08;;
60432;SDS011;46286;48.098;11.590;2023-03-14T08:12:20;3.13;;;0.90;;
60432;SDS011;46286;48.098;11.590;2023-03-14T08:14:46;1.13;;;0.85;;
60432;SDS011;46286;48.098;11.590;2023-03-14T08:17:11;1.30;;;0.70;;
60432;SDS011;46286;48.098;11.590;2023-03-14T08:19:37;2.03;;;0.82;;
60432;SDS011;46286;48.098;11.590;2023-03-14T08:22:03;1.35;;;0.98;;
60432;SDS011;46286;48.098;11.590;2023-03-14T08:24:29;2.25;;;1.23;;
60432;SDS011;46286;48.098;11.590;2023-03-14T08:26:55;1.52;;;0.85;;
60432;SDS011;46286;48.098;11.590;2023-03-14T08:29:20;1.40;;;0.90;;
60432;SDS011;46286;48.098;11.590;2023-03-14T08:31:46;3.90;;;1.10;;
60432;SDS011;46286;48.098;11.590;2023-03-14T08:34:13;2.20;;;0.85;;
60432;SDS011;46286;48.098;11.590;2023-03-14T08:36:39;2.10;;;0.80;;
60432;SDS011;46286;48.098;11.590;2023-03-14T08:39:05;1.42;;;0.77;;
60432;SDS011;46286;48.098;11.590;2023-03-14T08:41:32;1.27;;;0.70;;
60432;SDS011;46286;48.098;11.590;2023-03-14T08:44:00;1.35;;;0.75;;
60432;SDS011;46286;48.098;11.590;2023-03-14T08:46:25;0.55;;;0.55;;
60432;SDS011;46286;48.098;11.590;2023-03-14T08:48:51;0.65;;;0.60;;
60432;SDS011;46286;48.098;11.590;2023-03-14T08:51:16;1.00;;;0.77;;
60432;SDS011;46286;48.098;11.590;2023-03-14T08:53:42;1.52;;;0.80;;
60432;SDS011;46286;48.098;11.590;2023-03-14T08:56:08;1.77;;;1.05;;
60432;SDS011;46286;48.098;11.590;2023-03-14T08:58:35;0.57;;;0.57;;
60432;SDS011;46286;48.098;11.590;2023-03-14T09:01:04;2.00;;;1.02;;
60432;SDS011;46286;48.098;11.590;2023-03-14T09:03:30;3.65;;;1.13;;
60432;SDS011;46286;48.098;11.590;2023-03-14T09:05:56;2.03;;;0.80;;
60432;SDS011;46286;48.098;11.590;2023-03-14T09:08:27;1.08;;;0.93;;
60432;SDS011;46286;48.098;11.590;2023-03-14T09:10:53;1.85;;;0.90;;
60432;SDS011;46286;48.098;11.590;2023-03-14T09:13:18;2.83;;;1.23;;
60432;SDS011;46286;48.098;11.590;2023-03-14T09:15:44;1.13;;;0.75;;
60432;SDS011;46286;48.098;11.590;2023-03-14T09:18:10;1.00;;;0.63;;
60432;SDS011;46286;48.098;11.590;2023-03-14T09:20:35;1.00;;;0.50;;
60432;SDS011;46286;48.098;11.590;2023-03-14T09:23:01;1.20;;;0.68;;
60432;SDS011;46286;48.098;11.590;2023-03-14T09:25:26;0.65;;;0.47;;
60432;SDS011;46286;48.098;11.590;2023-03-14T09:27:52;1.83;;;0.52;;
60432;SDS011;46286;48.098;11.590;2023-03-14T09:30:17;1.25;;;0.80;;
60432;SDS011;46286;48.098;11.590;2023-03-14T09:32:43;0.93;;;0.50;;
60432;SDS011;46286;48.098;11.590;2023-03-14T09:35:09;1.63;;;0.77;;
60432;SDS011;46286;48.098;11.590;2023-03-14T09:37:34;0.50;;;0.43;;
60432;SDS011;46286;48.098;11.590;2023-03-14T09:40:00;0.60;;;0.60;;
60432;SDS011;46286;48.098;11.590;2023-03-14T09:42:33;4.18;;;1.40;;
60432;SDS011;46286;48.098;11.590;2023-03-14T09:45:03;0.85;;;0.70;;
60432;SDS011;46286;48.098;11.590;2023-03-14T09:47:32;2.10;;;1.50;;
60432;SDS011;46286;48.098;11.590;2023-03-14T09:49:59;4.75;;;2.60;;
60432;SDS011;46286;48.098;11.590;2023-03-14T09:55:11;1.23;;;0.93;;
60432;SDS011;46286;48.098;11.590;2023-03-14T09:57:41;2.33;;;1.35;;
60432;SDS011;46286;48.098;11.590;2023-03-14T10:00:18;2.17;;;0.95;;
60432;SDS011;46286;48.098;11.590;2023-03-14T10:02:53;0.52;;;0.52;;
60432;SDS011;46286;48.098;11.590;2023-03-14T10:05:21;1.92;;;0.88;;
60432;SDS011;46286;48.098;11.590;2023-03-14T10:07:49;1.65;;;0.57;;
60432;SDS011;46286;48.098;11.590;2023-03-14T10:12:44;2.03;;;0.60;;
60432;SDS011;46286;48.098;11.590;2023-03-14T10:15:26;0.95;;;0.70;;
60432;SDS011;46286;48.098;11.590;2023-03-14T10:17:55;0.95;;;0.60;;
60432;SDS011;46286;48.098;11.590;2023-03-14T10:25:38;1.35;;;0.77;;
60432;SDS011;46286;48.098;11.590;2023-03-14T10:28:10;1.38;;;0.73;;
60432;SDS011;46286;48.098;11.590;2023-03-14T10:30:50;0.77;;;0.70;;
60432;SDS011;46286;48.098;11.590;2023-03-14T10:35:56;0.52;;;0.52;;
60432;SDS011;46286;48.098;11.590;2023-03-14T10:38:25;0.55;;;0.40;;
60432;SDS011;46286;48.098;11.590;2023-03-14T10:40:53;1.02;;;0.50;;
60432;SDS011;46286;48.098;11.590;2023-03-14T10:43:22;0.75;;;0.60;;
60432;SDS011;46286;48.098;11.590;2023-03-14T10:45:54;0.55;;;0.50;;
60432;SDS011;46286;48.098;11.590;2023-03-14T10:50:59;1.77;;;1.00;;
60432;SDS011;46286;48.098;11.590;2023-03-14T10:56:05;0.85;;;0.60;;
60432;SDS011;46286;48.098;11.590;2023-03-14T10:58:33;1.23;;;0.80;;
60432;SDS011;46286;48.098;11.590;2023-03-14T11:03:56;0.50;;;0.50;;
60432;SDS011;46286;48.098;11.590;2023-03-14T11:06:29;0.63;;;0.50;;
60432;SDS011;46286;48.098;11.590;2023-03-14T11:12:14;0.80;;;0.70;;
60432;SDS011;46286;48.098;11.590;2023-03-14T11:14:47;0.50;;;0.50;;
60432;SDS011;46286;48.098;11.590;2023-03-14T11:20:14;2.63;;;0.70;;
60432;SDS011;46286;48.098;11.590;2023-03-14T11:25:43;0.68;;;0.50;;
60432;SDS011;46286;48.098;11.590;2023-03-14T11:30:55;0.30;;;0.30;;
60432;SDS011;46286;48.098;11.590;2023-03-14T11:33:44;0.57;;;0.57;;
60432;SDS011;46286;48.098;11.590;2023-03-14T11:36:27;0.70;;;0.60;;
60432;SDS011;46286;48.098;11.590;2023-03-14T11:38:59;0.30;;;0.30;;
60432;SDS011;46286;48.098;11.590;2023-03-14T11:41:41;0.50;;;0.50;;
60432;SDS011;46286;48.098;11.590;2023-03-14T11:44:51;0.20;;;0.20;;
60432;SDS011;46286;48.098;11.590;2023-03-14T11:47:07;13.77;;;0.73;;
60432;SDS011;46286;48.098;11.590;2023-03-14T11:49:38;0.70;;;0.50;;
60432;SDS011;46286;48.098;11.590;2023-03-14T11:55:02;0.55;;;0.45;;
60432;SDS011;46286;48.098;11.590;2023-03-14T11:57:35;0.53;;;0.50;;
60432;SDS011;46286;48.098;11.590;2023-03-14T12:00:18;0.55;;;0.43;;
60432;SDS011;46286;48.098;11.590;2023-03-14T12:03:46;1.48;;;0.43;;
60432;SDS011;46286;48.098;11.590;2023-03-14T12:13:50;0.38;;;0.38;;
60432;SDS011;46286;48.098;11.590;2023-03-14T12:18:49;0.52;;;0.43;;
60432;SDS011;46286;48.098;11.590;2023-03-14T12:21:16;0.85;;;0.40;;
60432;SDS011;46286;48.098;11.590;2023-03-14T12:26:23;0.98;;;0.60;;
60432;SDS011;46286;48.098;11.590;2023-03-14T12:28:52;2.70;;;0.50;;
60432;SDS011;46286;48.098;11.590;2023-03-14T12:31:40;0.47;;;0.40;;
60432;SDS011;46286;48.098;11.590;2023-03-14T12:50:12;0.70;;;0.30;;
60432;SDS011;46286;48.098;11.590;2023-03-14T12:52:57;1.55;;;0.63;;
60432;SDS011;46286;48.098;11.590;2023-03-14T12:59:01;0.30;;;0.30;;
60432;SDS011;46286;48.098;11.590;2023-03-14T13:01:35;1.73;;;0.70;;
60432;SDS011;46286;48.098;11.590;2023-03-14T13:04:08;0.35;;;0.30;;
60432;SDS011;46286;48.098;11.590;2023-03-14T13:06:46;1.17;;;0.50;;
60432;SDS011;46286;48.098;11.590;2023-03-14T13:11:50;0.90;;;0.60;;
60432;SDS011;46286;48.098;11.590;2023-03-14T13:14:18;0.30;;;0.30;;
60432;SDS011;46286;48.098;11.590;2023-03-14T13:16:43;3.25;;;0.50;;
60432;SDS011;46286;48.098;11.590;2023-03-14T13:19:21;0.30;;;0.30;;
60432;SDS011;46286;48.098;11.590;2023-03-14T13:21:50;0.57;;;0.30;;
60432;SDS011;46286;48.098;11.590;2023-03-14T13:24:26;0.20;;;0.20;;
60432;SDS011;46286;48.098;11.590;2023-03-14T13:26:53;0.20;;;0.20;;
60432;SDS011;46286;48.098;11.590;2023-03-14T13:29:21;0.45;;;0.40;;
60432;SDS011;46286;48.098;11.590;2023-03-14T13:31:59;0.40;;;0.40;;
60432;SDS011;46286;48.098;11.590;2023-03-14T13:34:28;0.35;;;0.35;;
60432;SDS011;46286;48.098;11.590;2023-03-14T13:36:55;0.28;;;0.20;;
60432;SDS011;46286;48.098;11.590;2023-03-14T13:39:22;0.28;;;0.28;;
60432;SDS011;46286;48.098;11.590;2023-03-14T13:41:53;0.85;;;0.40;;
60432;SDS011;46286;48.098;11.590;2023-03-14T13:44:34;1.55;;;0.52;;
60432;SDS011;46286;48.098;11.590;2023-03-14T13:47:03;0.90;;;0.30;;
60432;SDS011;46286;48.098;11.590;2023-03-14T13:49:32;4.28;;;0.52;;
60432;SDS011;46286;48.098;11.590;2023-03-14T13:52:01;0.32;;;0.32;;
60432;SDS011;46286;48.098;11.590;2023-03-14T13:54:27;1.17;;;0.50;;
60432;SDS011;46286;48.098;11.590;2023-03-14T13:57:00;0.20;;;0.20;;
60432;SDS011;46286;48.098;11.590;2023-03-14T13:59:28;0.10;;;0.10;;
60432;SDS011;46286;48.098;11.590;2023-03-14T14:01:58;0.30;;;0.30;;
60432;SDS011;46286;48.098;11.590;2023-03-14T14:04:30;0.20;;;0.20;;
60432;SDS011;46286;48.098;11.590;2023-03-14T14:07:01;0.15;;;0.10;;
60432;SDS011;46286;48.098;11.590;2023-03-14T14:09:39;0.57;;;0.20;;
60432;SDS011;46286;48.098;11.590;2023-03-14T14:15:02;0.45;;;0.20;;
60432;SDS011;46286;48.098;11.590;2023-03-14T14:17:40;3.83;;;0.35;;
60432;SDS011;46286;48.098;11.590;2023-03-14T14:20:18;0.30;;;0.20;;
60432;SDS011;46286;48.098;11.590;2023-03-14T14:22:48;0.32;;;0.32;;
60432;SDS011;46286;48.098;11.590;2023-03-14T14:25:15;2.08;;;0.63;;
60432;SDS011;46286;48.098;11.590;2023-03-14T14:27:43;0.38;;;0.20;;
60432;SDS011;46286;48.098;11.590;2023-03-14T14:32:44;0.45;;;0.20;;
60432;SDS011;46286;48.098;11.590;2023-03-14T14:35:25;0.20;;;0.17;;
60432;SDS011;46286;48.098;11.590;2023-03-14T14:38:00;0.90;;;0.30;;
60432;SDS011;46286;48.098;11.590;2023-03-14T14:40:28;0.55;;;0.30;;
60432;SDS011;46286;48.098;11.590;2023-03-14T14:43:01;0.40;;;0.20;;
60432;SDS011;46286;48.098;11.590;2023-03-14T14:45:29;0.80;;;0.30;;
60432;SDS011;46286;48.098;11.590;2023-03-14T14:48:04;0.70;;;0.30;;
60432;SDS011;46286;48.098;11.590;2023-03-14T14:50:33;0.30;;;0.30;;
60432;SDS011;46286;48.098;11.590;2023-03-14T14:53:03;0.15;;;0.08;;
60432;SDS011;46286;48.098;11.590;2023-03-14T14:55:50;0.38;;;0.30;;
60432;SDS011;46286;48.098;11.590;2023-03-14T14:58:18;0.57;;;0.30;;
60432;SDS011;46286;48.098;11.590;2023-03-14T15:00:57;1.17;;;0.25;;
60432;SDS011;46286;48.098;11.590;2023-03-14T15:03:28;1.00;;;0.20;;
60432;SDS011;46286;48.098;11.590;2023-03-14T15:05:56;0.28;;;0.28;;
60432;SDS011;46286;48.098;11.590;2023-03-14T15:08:22;0.22;;;0.22;;
60432;SDS011;46286;48.098;11.590;2023-03-14T15:10:49;0.47;;;0.30;;
60432;SDS011;46286;48.098;11.590;2023-03-14T15:13:15;1.00;;;0.75;;
60432;SDS011;46286;48.098;11.590;2023-03-14T15:15:41;0.40;;;0.40;;
60432;SDS011;46286;48.098;11.590;2023-03-14T15:18:15;0.35;;;0.20;;
60432;SDS011;46286;48.098;11.590;2023-03-14T15:20:44;0.47;;;0.47;;
60432;SDS011;46286;48.098;11.590;2023-03-14T15:23:13;0.52;;;0.50;;
60432;SDS011;46286;48.098;11.590;2023-03-14T15:25:41;0.40;;;0.30;;
60432;SDS011;46286;48.098;11.590;2023-03-14T15:30:50;0.30;;;0.30;;
60432;SDS011;46286;48.098;11.590;2023-03-14T15:33:18;0.50;;;0.50;;
60432;SDS011;46286;48.098;11.590;2023-03-14T15:35:44;0.63;;;0.45;;
60432;SDS011;46286;48.098;11.590;2023-03-14T15:38:20;1.05;;;0.50;;
60432;SDS011;46286;48.098;11.590;2023-03-14T15:40:48;0.68;;;0.55;;
60432;SDS011;46286;48.098;11.590;2023-03-14T15:43:16;0.57;;;0.45;;
60432;SDS011;46286;48.098;11.590;2023-03-14T15:45:43;0.70;;;0.70;;
60432;SDS011;46286;48.098;11.590;2023-03-14T15:48:12;1.35;;;0.70;;
60432;SDS011;46286;48.098;11.590;2023-03-14T15:50:40;1.13;;;0.70;;
60432;SDS011;46286;48.098;11.590;2023-03-14T15:53:06;1.13;;;0.50;;
60432;SDS011;46286;48.098;11.590;2023-03-14T15:55:32;0.93;;;0.80;;
60432;SDS011;46286;48.098;11.590;2023-03-14T15:57:57;1.15;;;0.90;;
60432;SDS011;46286;48.098;11.590;2023-03-14T16:00:25;1.58;;;0.73;;
60432;SDS011;46286;48.098;11.590;2023-03-14T16:02:51;2.35;;;0.82;;
60432;SDS011;46286;48.098;11.590;2023-03-14T16:05:17;1.70;;;0.90;;